Time;durP1;ratioP1;P1;durP2;ratioP2;P2;SDS_P1;SDS_P2;PMS_P1;PMS_P2;Temp;Humidity;BMP_temperature;BMP_pressure;BME280_temperature;BME280_humidity;BME280_pressure;Samples;Min_cycle;Max_cycle;Signal;HPM_P1;HPM_P2
2021/05/03 00:00:51;;;;;;;12.90;11.93;;;24.20;70.00;;;;;;3542293;40;20484;-54
2021/05/03 00:03:18;;;;;;;13.40;12.50;;;24.20;70.00;;;;;;3542092;40;20601;-58
2021/05/03 00:05:46;;;;;;;12.27;11.30;;;24.20;70.00;;;;;;3542198;40;20721;-54
2021/05/03 00:08:13;;;;;;;13.23;12.33;;;24.20;70.00;;;;;;3541813;40;21066;-54
2021/05/03 00:10:41;;;;;;;13.50;12.40;;;24.20;70.00;;;;;;3541505;40;20487;-56
2021/05/03 00:13:07;;;;;;;13.10;12.10;;;24.20;70.00;;;;;;3542173;40;20507;-54
2021/05/03 00:15:34;;;;;;;12.00;11.20;;;24.20;70.00;;;;;;3543708;40;20692;-56
2021/05/03 00:18:01;;;;;;;13.47;12.47;;;24.20;70.00;;;;;;3543680;40;20485;-55
2021/05/03 00:20:27;;;;;;;13.67;12.63;;;24.20;70.10;;;;;;3542748;40;20967;-57
2021/05/03 00:22:54;;;;;;;13.30;12.43;;;24.20;70.20;;;;;;3543858;40;20479;-56
2021/05/03 00:25:21;;;;;;;13.30;12.30;;;24.20;70.10;;;;;;3543242;40;20494;-56
2021/05/03 00:27:48;;;;;;;12.63;11.73;;;24.20;70.10;;;;;;3542947;40;20495;-55
2021/05/03 00:30:16;;;;;;;13.68;12.75;;;24.20;70.10;;;;;;3542814;40;20575;-55
2021/05/03 00:32:43;;;;;;;13.80;12.70;;;24.20;70.20;;;;;;3543182;40;20507;-57
2021/05/03 00:35:11;;;;;;;13.07;12.10;;;24.20;70.20;;;;;;3543934;40;20501;-58
2021/05/03 00:37:37;;;;;;;12.87;12.00;;;24.20;70.20;;;;;;3535195;40;20480;-58
2021/05/03 00:40:05;;;;;;;13.70;12.70;;;24.20;70.10;;;;;;3543577;40;20608;-58
2021/05/03 00:42:32;;;;;;;13.70;12.50;;;24.20;70.10;;;;;;3533527;40;20594;-53
2021/05/03 00:45:08;;;;;;;14.23;13.13;;;24.20;70.10;;;;;;3542633;40;20748;-56
2021/05/03 00:47:35;;;;;;;14.07;12.90;;;24.20;70.20;;;;;;3542091;40;20545;-55
2021/05/03 00:50:02;;;;;;;12.87;11.97;;;24.20;70.20;;;;;;3542443;40;20496;-54
2021/05/03 00:52:30;;;;;;;12.63;11.73;;;24.20;70.20;;;;;;3542243;40;20496;-56
2021/05/03 00:54:56;;;;;;;13.03;12.13;;;24.20;70.20;;;;;;3542404;40;20491;-57
2021/05/03 00:57:23;;;;;;;13.52;12.55;;;24.20;70.20;;;;;;3546775;40;20764;-55
2021/05/03 00:59:50;;;;;;;13.57;12.33;;;24.20;70.30;;;;;;3552007;40;20228;-54
2021/05/03 01:02:18;;;;;;;12.50;11.70;;;24.20;70.20;;;;;;3551657;40;20493;-57
2021/05/03 01:04:44;;;;;;;13.93;12.73;;;24.20;70.30;;;;;;3552688;40;20513;-56
2021/05/03 01:07:11;;;;;;;14.30;13.20;;;24.20;70.20;;;;;;3552377;40;20495;-53
2021/05/03 01:09:38;;;;;;;14.00;13.00;;;24.20;70.20;;;;;;3552814;40;20861;-55
2021/05/03 01:12:05;;;;;;;13.23;12.43;;;24.20;70.20;;;;;;3552586;40;20550;-54
2021/05/03 01:14:32;;;;;;;12.53;11.57;;;24.20;70.20;;;;;;3552438;40;20799;-57
2021/05/03 01:16:58;;;;;;;14.00;13.00;;;24.20;70.20;;;;;;3552366;40;20787;-55
2021/05/03 01:19:28;;;;;;;12.50;11.80;;;24.20;70.20;;;;;;3552112;40;20600;-57
2021/05/03 01:21:56;;;;;;;13.57;12.57;;;24.20;70.30;;;;;;3547466;40;20674;-54
2021/05/03 01:24:22;;;;;;;13.30;12.30;;;24.20;70.20;;;;;;3541648;40;20521;-56
2021/05/03 01:26:49;;;;;;;13.35;12.45;;;24.20;70.30;;;;;;3542765;40;20957;-53
2021/05/03 01:29:16;;;;;;;12.67;11.77;;;24.20;70.30;;;;;;3543750;40;20229;-53
2021/05/03 01:31:48;;;;;;;13.20;12.20;;;24.20;70.30;;;;;;3543951;40;20862;-57
2021/05/03 01:34:15;;;;;;;13.40;12.50;;;24.20;70.30;;;;;;3542785;40;20574;-57
2021/05/03 01:36:44;;;;;;;12.90;12.00;;;24.20;70.20;;;;;;3541834;40;20790;-57
2021/05/03 01:39:13;;;;;;;13.10;12.10;;;24.20;70.20;;;;;;3542725;40;20471;-54
2021/05/03 01:41:41;;;;;;;12.60;11.80;;;24.20;70.30;;;;;;3541481;40;20758;-57
2021/05/03 01:44:09;;;;;;;13.00;12.10;;;24.20;70.30;;;;;;3541857;40;21070;-55
2021/05/03 01:46:37;;;;;;;12.83;11.93;;;24.20;70.20;;;;;;3542407;40;20512;-57
2021/05/03 01:49:10;;;;;;;13.00;12.10;;;24.20;70.20;;;;;;3542781;40;20697;-55
2021/05/03 01:51:39;;;;;;;14.03;13.10;;;24.20;70.20;;;;;;3542557;40;20521;-54
2021/05/03 01:54:06;;;;;;;13.97;12.97;;;24.20;70.30;;;;;;3541947;40;20540;-53
2021/05/03 01:56:45;;;;;;;12.70;11.90;;;24.20;70.30;;;;;;3541212;40;20504;-56
2021/05/03 01:59:11;;;;;;;13.00;12.00;;;24.20;70.40;;;;;;3532511;40;20495;-58
2021/05/03 02:01:39;;;;;;;12.25;11.45;;;24.20;70.30;;;;;;3541438;40;21085;-54
2021/05/03 02:04:06;;;;;;;13.07;12.17;;;24.20;70.40;;;;;;3541502;40;20235;-56
2021/05/03 02:06:33;;;;;;;14.00;13.00;;;24.20;70.40;;;;;;3541677;40;20496;-57
2021/05/03 02:09:07;;;;;;;13.87;12.87;;;24.20;70.30;;;;;;3542304;40;20476;-56
2021/05/03 02:11:34;;;;;;;12.30;11.50;;;24.20;70.30;;;;;;3536731;40;20588;-59
2021/05/03 02:14:01;;;;;;;13.40;12.40;;;24.20;70.30;;;;;;3551341;40;20746;-56
2021/05/03 02:16:28;;;;;;;13.53;12.63;;;24.20;70.30;;;;;;3551464;40;20514;-56
2021/05/03 02:18:55;;;;;;;12.77;11.80;;;24.20;70.20;;;;;;3551500;40;20495;-55
2021/05/03 02:21:21;;;;;;;13.33;12.33;;;24.20;71.00;;;;;;3551574;40;21103;-56
2021/05/03 02:23:48;;;;;;;12.93;11.97;;;24.20;70.30;;;;;;3550356;40;20557;-54
2021/05/03 02:26:15;;;;;;;13.33;12.33;;;24.20;70.30;;;;;;3551973;40;21069;-58
2021/05/03 02:28:42;;;;;;;12.37;11.57;;;24.20;70.30;;;;;;3552047;40;20495;-57
2021/05/03 02:31:09;;;;;;;12.37;11.50;;;24.20;70.30;;;;;;3551995;40;20573;-55
2021/05/03 02:33:36;;;;;;;13.53;12.47;;;24.20;70.30;;;;;;3551823;40;20714;-58
2021/05/03 02:36:03;;;;;;;13.00;12.17;;;24.20;70.30;;;;;;3549858;40;20593;-55
2021/05/03 02:38:31;;;;;;;13.70;12.80;;;24.20;70.30;;;;;;3551442;40;20483;-56
2021/05/03 02:40:57;;;;;;;12.90;12.10;;;24.20;70.40;;;;;;3550695;40;20505;-57
2021/05/03 02:43:24;;;;;;;13.23;12.33;;;24.20;70.40;;;;;;3551055;40;20507;-57
2021/05/03 02:45:51;;;;;;;12.93;12.03;;;24.20;70.40;;;;;;3542673;40;20494;-55
2021/05/03 02:48:18;;;;;;;13.43;12.53;;;24.20;70.40;;;;;;3552590;40;20505;-56
2021/05/03 02:50:45;;;;;;;12.40;11.63;;;24.20;70.40;;;;;;3551874;40;20884;-55
2021/05/03 02:53:11;;;;;;;13.00;12.20;;;24.20;70.50;;;;;;3551603;40;20480;-55
2021/05/03 02:55:38;;;;;;;13.43;12.53;;;24.20;70.40;;;;;;3552624;40;20494;-57
2021/05/03 02:58:05;;;;;;;13.17;12.17;;;24.20;70.40;;;;;;3551783;40;20741;-56
2021/05/03 03:00:34;;;;;;;12.80;11.80;;;24.20;70.40;;;;;;3550189;40;20490;-56
2021/05/03 03:03:02;;;;;;;13.63;12.73;;;24.20;70.40;;;;;;3552054;40;20687;-55
2021/05/03 03:05:30;;;;;;;13.17;12.27;;;24.20;70.40;;;;;;3551633;40;20618;-56
2021/05/03 03:08:01;;;;;;;13.40;12.47;;;24.20;70.40;;;;;;3551098;40;20483;-57
2021/05/03 03:10:28;;;;;;;12.40;11.70;;;24.20;70.40;;;;;;3551083;40;20720;-56
2021/05/03 03:12:55;;;;;;;13.00;12.10;;;24.20;70.40;;;;;;3551907;40;20279;-55
2021/05/03 03:15:24;;;;;;;12.83;11.97;;;24.20;70.40;;;;;;3551742;40;20490;-55
2021/05/03 03:17:52;;;;;;;13.10;12.30;;;24.20;70.40;;;;;;3551995;40;20501;-57
2021/05/03 03:20:21;;;;;;;13.13;12.23;;;24.20;70.40;;;;;;3551899;40;20485;-54
2021/05/03 03:22:49;;;;;;;13.10;12.30;;;24.20;70.40;;;;;;3550586;40;20474;-57
2021/05/03 03:25:18;;;;;;;13.97;12.97;;;24.20;70.40;;;;;;3550115;40;20498;-56
2021/05/03 03:27:44;;;;;;;14.17;13.20;;;24.20;70.40;;;;;;3550436;40;20498;-56
2021/05/03 03:30:13;;;;;;;12.87;12.03;;;24.20;71.10;;;;;;3551196;40;20794;-55
2021/05/03 03:32:43;;;;;;;13.10;12.30;;;24.20;70.40;;;;;;3551635;40;20493;-54
2021/05/03 03:35:10;;;;;;;13.50;12.63;;;24.20;70.40;;;;;;3543524;40;20584;-56
2021/05/03 03:37:37;;;;;;;12.60;11.80;;;24.20;70.40;;;;;;3551404;40;20487;-57
2021/05/03 03:40:06;;;;;;;13.40;12.60;;;24.20;70.40;;;;;;3551855;40;20483;-57
2021/05/03 03:42:33;;;;;;;13.68;12.77;;;24.20;70.40;;;;;;3551565;40;20691;-57
2021/05/03 03:44:59;;;;;;;13.27;12.40;;;24.20;70.40;;;;;;3550656;40;20220;-55
2021/05/03 03:47:26;;;;;;;12.77;11.97;;;24.20;70.50;;;;;;3550486;40;20719;-55
2021/05/03 03:49:53;;;;;;;13.83;13.00;;;24.20;70.40;;;;;;3551881;40;20532;-57
2021/05/03 03:52:20;;;;;;;14.03;13.23;;;24.20;70.40;;;;;;3551376;40;20578;-53
2021/05/03 03:54:47;;;;;;;12.90;12.17;;;24.20;70.40;;;;;;3552156;40;20506;-55
2021/05/03 03:57:14;;;;;;;15.07;13.90;;;24.30;70.50;;;;;;3551966;40;20465;-54
2021/05/03 03:59:43;;;;;;;13.80;13.00;;;24.30;70.50;;;;;;3552247;40;20493;-58
2021/05/03 04:02:10;;;;;;;12.90;12.17;;;24.30;70.40;;;;;;3551924;40;20545;-55
2021/05/03 04:04:40;;;;;;;13.77;12.97;;;24.30;70.30;;;;;;3551045;40;20700;-53
2021/05/03 04:07:14;;;;;;;13.60;12.80;;;24.30;70.30;;;;;;3549889;40;20500;-57
2021/05/03 04:09:45;;;;;;;14.33;13.43;;;24.40;70.30;;;;;;3551519;40;20501;-57
2021/05/03 04:23:47;;;;;;;14.10;13.30;;;24.40;70.20;;;;;;3553047;40;20526;-55
2021/05/03 04:26:15;;;;;;;14.23;13.30;;;24.40;70.20;;;;;;3552624;40;20794;-57
2021/05/03 04:28:41;;;;;;;13.40;12.60;;;24.40;70.20;;;;;;3552241;40;20583;-55
2021/05/03 04:31:09;;;;;;;14.67;13.77;;;24.40;70.10;;;;;;3553038;40;20475;-55
2021/05/03 04:33:36;;;;;;;13.10;12.30;;;24.50;70.10;;;;;;3553761;40;20513;-57
2021/05/03 04:36:03;;;;;;;14.63;13.73;;;24.50;70.10;;;;;;3550907;40;20236;-55
2021/05/03 04:38:29;;;;;;;14.23;13.43;;;24.50;70.10;;;;;;3551769;40;21229;-55
2021/05/03 04:41:00;;;;;;;14.13;13.23;;;24.60;70.10;;;;;;3550658;40;20505;-56
2021/05/03 04:43:33;;;;;;;14.03;13.23;;;24.60;70.00;;;;;;3551236;40;20503;-56
2021/05/03 04:46:01;;;;;;;14.00;13.17;;;24.60;70.00;;;;;;3550816;40;20501;-57
2021/05/03 04:48:29;;;;;;;13.20;12.40;;;24.60;70.00;;;;;;3551333;40;20501;-56
2021/05/03 04:50:55;;;;;;;13.70;12.83;;;24.60;69.90;;;;;;3551825;40;20475;-56
2021/05/03 04:53:22;;;;;;;13.63;12.83;;;24.60;69.90;;;;;;3542699;40;20517;-55
2021/05/03 04:55:49;;;;;;;14.60;13.70;;;24.60;69.90;;;;;;3537016;40;20494;-58
2021/05/03 04:58:16;;;;;;;13.53;12.73;;;24.60;69.80;;;;;;3526972;40;20942;-56
2021/05/03 05:00:43;;;;;;;13.93;13.02;;;24.60;69.80;;;;;;3537547;40;20756;-57
2021/05/03 05:03:10;;;;;;;14.57;13.77;;;24.60;69.80;;;;;;3539100;40;20320;-58
2021/05/03 05:05:38;;;;;;;13.83;12.90;;;24.70;69.90;;;;;;3538839;40;20808;-58
2021/05/03 05:08:05;;;;;;;13.50;12.70;;;24.70;69.80;;;;;;3538936;40;20491;-57
2021/05/03 05:10:32;;;;;;;13.73;12.93;;;24.70;69.80;;;;;;3537486;40;20475;-57
2021/05/03 05:12:58;;;;;;;13.97;12.90;;;24.70;69.80;;;;;;3548337;40;20483;-55
2021/05/03 05:15:25;;;;;;;13.10;12.40;;;24.70;69.80;;;;;;3547728;40;20568;-57
2021/05/03 05:17:52;;;;;;;14.00;13.20;;;24.80;69.80;;;;;;3547243;40;20498;-56
2021/05/03 05:20:21;;;;;;;13.40;12.60;;;24.80;69.80;;;;;;3546544;40;20489;-58
2021/05/03 05:22:48;;;;;;;13.70;12.80;;;24.80;69.70;;;;;;3545089;40;20483;-57
2021/05/03 05:25:15;;;;;;;14.40;13.60;;;24.80;69.70;;;;;;3546447;40;20580;-57
2021/05/03 05:27:42;;;;;;;14.82;13.82;;;24.80;69.70;;;;;;3547522;40;20662;-56
2021/05/03 05:30:10;;;;;;;13.20;12.50;;;24.80;69.70;;;;;;3544970;40;20309;-55
2021/05/03 05:32:36;;;;;;;16.20;15.20;;;24.80;69.70;;;;;;3537259;40;20475;-56
2021/05/03 05:35:04;;;;;;;17.33;16.23;;;24.80;67.70;;;;;;3537046;40;20507;-57
2021/05/03 05:37:31;;;;;;;16.60;15.40;;;24.60;54.80;;;;;;3533423;40;20232;-56
2021/05/03 05:39:58;;;;;;;16.33;15.30;;;24.20;52.40;;;;;;3535078;40;20515;-56
2021/05/03 05:42:25;;;;;;;15.87;14.97;;;23.70;52.20;;;;;;3534760;40;20220;-56
2021/05/03 05:44:51;;;;;;;17.40;16.20;;;23.30;52.10;;;;;;3533817;40;20486;-57
2021/05/03 05:47:19;;;;;;;17.37;16.10;;;22.90;52.10;;;;;;3534007;40;20531;-58
2021/05/03 05:49:46;;;;;;;16.23;15.20;;;22.70;52.90;;;;;;3532600;40;20481;-57
2021/05/03 05:52:12;;;;;;;16.13;15.03;;;22.40;53.60;;;;;;3531755;40;20504;-56
2021/05/03 05:54:39;;;;;;;16.57;15.50;;;22.30;53.60;;;;;;3529624;40;20490;-56
2021/05/03 05:57:07;;;;;;;16.10;15.10;;;22.10;53.20;;;;;;3531991;40;20492;-55
2021/05/03 05:59:34;;;;;;;13.97;13.17;;;22.00;53.20;;;;;;3531344;40;20513;-57
2021/05/03 06:02:00;;;;;;;12.67;11.90;;;21.90;55.50;;;;;;3531754;40;20481;-56
2021/05/03 06:04:27;;;;;;;13.53;12.63;;;22.10;58.20;;;;;;3532459;40;20491;-56
2021/05/03 06:06:54;;;;;;;12.88;12.05;;;22.30;59.70;;;;;;3532583;40;20493;-56
2021/05/03 06:09:20;;;;;;;11.87;11.17;;;22.50;61.70;;;;;;3532441;40;20241;-57
2021/05/03 06:11:47;;;;;;;13.17;12.27;;;22.80;61.80;;;;;;3529494;40;20488;-55
2021/05/03 06:14:14;;;;;;;12.23;11.33;;;23.00;62.40;;;;;;3529287;40;20507;-57
2021/05/03 06:16:41;;;;;;;12.55;11.80;;;23.20;62.80;;;;;;3527755;40;20482;-57
2021/05/03 06:19:07;;;;;;;12.57;11.77;;;23.30;62.90;;;;;;3526876;40;20556;-57
2021/05/03 06:21:34;;;;;;;13.10;11.90;;;23.50;63.00;;;;;;3526106;40;20494;-57
2021/05/03 06:24:01;;;;;;;11.77;11.17;;;23.60;63.00;;;;;;3526140;40;21372;-55
2021/05/03 06:26:28;;;;;;;12.00;11.03;;;23.70;62.90;;;;;;3526912;40;20889;-58
2021/05/03 06:28:55;;;;;;;12.10;11.30;;;23.80;63.00;;;;;;3526655;40;20492;-57
2021/05/03 06:31:25;;;;;;;11.60;10.90;;;23.90;63.10;;;;;;3525325;40;20752;-57
2021/05/03 06:33:52;;;;;;;10.90;10.10;;;24.00;63.80;;;;;;3531255;40;20482;-55
2021/05/03 06:36:20;;;;;;;11.67;10.90;;;24.10;63.20;;;;;;3535520;40;20486;-56
2021/05/03 06:38:51;;;;;;;11.40;10.60;;;24.20;63.30;;;;;;3535070;40;20754;-57
2021/05/03 06:41:19;;;;;;;10.97;10.37;;;24.20;63.40;;;;;;3538057;40;20840;-56
2021/05/03 06:43:45;;;;;;;11.13;10.43;;;24.30;63.50;;;;;;3535852;40;20507;-57
2021/05/03 06:46:13;;;;;;;12.10;11.03;;;24.30;63.60;;;;;;3536777;40;20503;-57
2021/05/03 06:48:41;;;;;;;11.07;10.37;;;24.40;63.80;;;;;;3538570;40;20581;-56
2021/05/03 06:51:07;;;;;;;10.90;10.27;;;24.50;64.00;;;;;;3534149;40;20497;-57
2021/05/03 06:53:34;;;;;;;11.03;10.30;;;24.50;64.10;;;;;;3540322;40;21301;-57
2021/05/03 06:56:02;;;;;;;12.00;11.17;;;24.50;64.40;;;;;;3546293;40;20856;-58
2021/05/03 06:58:29;;;;;;;12.07;11.20;;;24.60;64.70;;;;;;3543072;40;20486;-57
2021/05/03 07:00:57;;;;;;;11.40;10.63;;;24.50;64.70;;;;;;3543160;40;20482;-55
2021/05/03 07:03:26;;;;;;;10.97;10.10;;;24.50;64.90;;;;;;3543906;40;20880;-57
2021/05/03 07:05:54;;;;;;;11.70;10.90;;;24.60;65.10;;;;;;3534338;40;20697;-57
2021/05/03 07:08:24;;;;;;;11.27;10.47;;;24.60;65.30;;;;;;3541880;40;21013;-56
2021/05/03 07:10:55;;;;;;;10.43;9.83;;;24.60;65.40;;;;;;3538103;40;20657;-56
2021/05/03 07:13:21;;;;;;;11.90;11.00;;;24.60;65.50;;;;;;3541887;40;20928;-57
2021/05/03 07:15:48;;;;;;;11.10;10.20;;;24.60;65.50;;;;;;3545621;40;20473;-57
2021/05/03 07:18:14;;;;;;;11.40;10.33;;;24.60;65.60;;;;;;3545432;40;21416;-55
2021/05/03 07:20:41;;;;;;;12.00;11.00;;;24.60;65.70;;;;;;3543659;40;20466;-56
2021/05/03 07:23:09;;;;;;;11.17;10.37;;;24.60;65.80;;;;;;3546211;40;20906;-58
2021/05/03 07:25:36;;;;;;;25.10;11.00;;;24.60;65.90;;;;;;3547609;40;20501;-55
2021/05/03 07:28:03;;;;;;;12.33;11.50;;;24.60;65.90;;;;;;3544343;40;20764;-55
2021/05/03 07:30:30;;;;;;;11.60;10.87;;;24.60;66.00;;;;;;3546011;40;20492;-55
2021/05/03 07:32:56;;;;;;;13.50;12.20;;;24.70;66.20;;;;;;3547044;40;20588;-57
2021/05/03 07:35:23;;;;;;;12.50;11.27;;;24.70;66.20;;;;;;3547993;40;20968;-56
2021/05/03 07:37:49;;;;;;;14.10;12.63;;;24.70;66.30;;;;;;3545568;40;20501;-56
2021/05/03 07:40:17;;;;;;;16.60;12.37;;;24.80;66.30;;;;;;3545687;40;20555;-56
2021/05/03 07:42:45;;;;;;;18.80;12.43;;;24.80;66.40;;;;;;3544255;40;20784;-56
2021/05/03 07:45:15;;;;;;;16.80;11.30;;;24.80;66.50;;;;;;3542953;40;21417;-55
2021/05/03 07:47:43;;;;;;;14.00;12.70;;;24.80;66.30;;;;;;3541343;40;20533;-56
2021/05/03 07:50:11;;;;;;;12.60;11.40;;;24.80;66.50;;;;;;3540938;40;20479;-57
2021/05/03 07:52:39;;;;;;;16.23;12.23;;;24.90;66.70;;;;;;3540888;40;20580;-58
2021/05/03 07:55:12;;;;;;;18.03;11.07;;;24.90;66.70;;;;;;3536806;40;20233;-59
2021/05/03 07:57:41;;;;;;;13.73;11.57;;;24.90;66.80;;;;;;3539988;40;20499;-58
2021/05/03 08:00:09;;;;;;;15.27;11.80;;;24.90;66.80;;;;;;3542022;40;20549;-57
2021/05/03 08:02:36;;;;;;;14.13;11.40;;;24.90;66.80;;;;;;3539377;40;20488;-58
2021/05/03 08:05:03;;;;;;;13.13;11.77;;;24.90;66.90;;;;;;3534524;40;20495;-58
2021/05/03 08:07:31;;;;;;;13.53;10.67;;;24.90;67.00;;;;;;3534771;40;20488;-58
2021/05/03 08:09:58;;;;;;;12.20;11.10;;;24.90;67.10;;;;;;3538674;40;20576;-57
2021/05/03 08:12:28;;;;;;;13.00;11.87;;;24.90;67.20;;;;;;3544530;40;20594;-57
2021/05/03 08:15:03;;;;;;;21.20;12.30;;;24.90;67.50;;;;;;3544019;40;20478;-58
2021/05/03 08:17:31;;;;;;;14.00;11.60;;;24.90;67.60;;;;;;3534089;40;20619;-57
2021/05/03 08:20:00;;;;;;;16.07;10.90;;;24.90;67.90;;;;;;3534275;40;20861;-58
2021/05/03 08:22:30;;;;;;;14.23;11.93;;;24.90;68.10;;;;;;3537130;40;20494;-57
2021/05/03 08:24:57;;;;;;;15.57;12.30;;;24.90;68.20;;;;;;3537319;40;20500;-57
2021/05/03 08:27:24;;;;;;;15.27;12.20;;;24.90;68.30;;;;;;3544272;40;20512;-56
2021/05/03 08:29:51;;;;;;;16.90;12.40;;;24.90;68.50;;;;;;3542994;40;20490;-55
2021/05/03 08:32:19;;;;;;;13.07;11.87;;;24.90;68.70;;;;;;3536916;40;20577;-55
2021/05/03 08:34:45;;;;;;;13.70;12.30;;;24.80;68.80;;;;;;3537895;40;20478;-56
2021/05/03 08:37:13;;;;;;;12.70;11.40;;;24.80;68.60;;;;;;3536102;40;20905;-56
2021/05/03 08:39:40;;;;;;;14.03;12.30;;;24.80;68.40;;;;;;3534476;40;20529;-56
2021/05/03 08:42:08;;;;;;;12.33;11.00;;;24.80;68.40;;;;;;3535081;40;20585;-55
2021/05/03 08:44:35;;;;;;;12.90;10.93;;;24.80;68.30;;;;;;3536701;40;21314;-55
2021/05/03 08:47:03;;;;;;;13.77;11.40;;;24.80;68.00;;;;;;3535898;40;21200;-54
2021/05/03 08:49:36;;;;;;;12.48;10.73;;;24.80;67.90;;;;;;3534882;40;20531;-56
2021/05/03 08:52:11;;;;;;;15.70;11.30;;;24.70;67.50;;;;;;3535128;40;20316;-57
2021/05/03 08:54:39;;;;;;;15.23;11.20;;;24.80;67.80;;;;;;3538084;40;20899;-56
2021/05/03 08:57:07;;;;;;;11.40;10.63;;;24.70;67.00;;;;;;3536912;40;20766;-55
2021/05/03 08:59:36;;;;;;;11.73;10.53;;;24.70;66.60;;;;;;3534836;40;20503;-56
2021/05/03 09:02:04;;;;;;;13.00;10.50;;;24.70;67.00;;;;;;3537307;40;21167;-54
2021/05/03 09:04:32;;;;;;;12.87;10.57;;;24.70;67.20;;;;;;3537875;40;20622;-56
2021/05/03 09:07:00;;;;;;;17.93;10.47;;;24.60;65.80;;;;;;3529775;40;20608;-57
2021/05/03 09:09:32;;;;;;;12.00;10.57;;;24.60;66.20;;;;;;3527915;40;21633;-56
2021/05/03 09:11:59;;;;;;;13.60;11.60;;;24.60;68.20;;;;;;3520309;40;20489;-57
2021/05/03 09:14:26;;;;;;;11.60;10.43;;;24.60;68.40;;;;;;3520481;40;20814;-57
2021/05/03 09:16:53;;;;;;;12.13;10.93;;;24.60;68.60;;;;;;3536940;40;20966;-55
2021/05/03 09:19:20;;;;;;;15.60;11.93;;;24.60;69.30;;;;;;3525508;40;20491;-56
2021/05/03 09:21:47;;;;;;;11.23;10.27;;;24.50;69.20;;;;;;3535658;40;20288;-56
2021/05/03 09:24:17;;;;;;;14.17;12.20;;;24.50;69.40;;;;;;3536574;40;20497;-56
2021/05/03 09:26:47;;;;;;;12.93;11.52;;;24.50;67.80;;;;;;3537008;40;20532;-56
2021/05/03 09:29:35;;;;;;;17.20;12.57;;;24.50;69.20;;;;;;3527544;40;20236;-55
2021/05/03 09:32:05;;;;;;;15.47;11.13;;;24.50;68.90;;;;;;3535087;40;20494;-54
2021/05/03 09:34:34;;;;;;;12.47;11.13;;;24.40;69.00;;;;;;3535876;40;20978;-55
2021/05/03 09:37:34;;;;;;;12.70;10.93;;;24.40;69.00;;;;;;3535531;40;20749;-56
2021/05/03 09:40:05;;;;;;;13.90;11.47;;;24.40;68.90;;;;;;3503721;40;20519;-57
2021/05/03 09:42:44;;;;;;;14.93;10.83;;;24.40;68.50;;;;;;3521553;40;20486;-56
2021/05/03 09:45:13;;;;;;;14.77;12.97;;;24.40;68.40;;;;;;3526654;40;20477;-53
2021/05/03 09:47:41;;;;;;;12.90;11.70;;;24.30;67.80;;;;;;3537200;40;20499;-56
2021/05/03 09:50:11;;;;;;;12.37;11.07;;;24.30;68.60;;;;;;3535892;40;20477;-54
2021/05/03 09:52:39;;;;;;;14.83;11.90;;;24.30;68.20;;;;;;3536635;40;21433;-55
2021/05/03 09:55:34;;;;;;;11.73;10.57;;;24.20;67.10;;;;;;3537235;40;20486;-55
2021/05/03 09:58:12;;;;;;;11.20;10.40;;;24.20;67.60;;;;;;3535609;40;20889;-56
2021/05/03 10:00:41;;;;;;;11.47;10.67;;;24.20;66.90;;;;;;3534051;40;20491;-56
2021/05/03 10:03:32;;;;;;;11.00;10.23;;;24.20;66.90;;;;;;3535590;40;20561;-57
2021/05/03 10:05:59;;;;;;;11.40;10.60;;;24.20;66.50;;;;;;3534564;40;20726;-54
2021/05/03 10:08:27;;;;;;;11.30;10.50;;;24.10;65.10;;;;;;3533885;40;20492;-54
2021/05/03 10:10:57;;;;;;;11.83;10.93;;;24.10;65.50;;;;;;3536404;40;20489;-57
2021/05/03 10:13:25;;;;;;;11.53;10.10;;;24.10;66.00;;;;;;3536008;40;20482;-57
2021/05/03 10:15:55;;;;;;;10.93;10.23;;;24.10;66.60;;;;;;3535346;40;20486;-56
2021/05/03 10:18:22;;;;;;;14.60;10.80;;;24.10;66.90;;;;;;3535801;40;20987;-56
2021/05/03 10:20:49;;;;;;;12.00;11.00;;;24.10;67.10;;;;;;3537555;40;20490;-56
2021/05/03 10:23:19;;;;;;;11.13;10.23;;;24.10;67.20;;;;;;3513187;40;20480;-56
2021/05/03 10:25:48;;;;;;;11.30;10.50;;;24.10;67.40;;;;;;3536648;40;20500;-53
2021/05/03 10:28:15;;;;;;;13.20;12.17;;;24.20;67.60;;;;;;3534619;40;20484;-56
2021/05/03 10:30:44;;;;;;;18.10;16.23;;;24.20;67.80;;;;;;3533617;40;20788;-57
2021/05/03 10:33:13;;;;;;;21.20;19.03;;;24.20;68.00;;;;;;3534433;40;21289;-56
2021/05/03 10:35:43;;;;;;;23.30;20.97;;;24.20;68.10;;;;;;3533727;40;20484;-55
2021/05/03 10:38:32;;;;;;;25.23;22.73;;;24.20;68.30;;;;;;3533497;40;20494;-57
2021/05/03 10:41:02;;;;;;;25.00;21.13;;;24.20;68.60;;;;;;3535732;40;20643;-56
2021/05/03 10:43:39;;;;;;;26.63;23.27;;;24.20;68.60;;;;;;3535841;40;20494;-56
2021/05/03 10:48:58;;;;;;;22.23;20.23;;;24.20;68.90;;;;;;3529165;40;20505;-54
2021/05/03 10:51:49;;;;;;;27.60;23.30;;;24.20;69.80;;;;;;3533142;40;20478;-56
2021/05/03 10:54:37;;;;;;;25.50;22.97;;;24.20;69.30;;;;;;3534724;40;20490;-56
2021/05/03 10:57:07;;;;;;;23.15;20.77;;;24.20;69.40;;;;;;3535085;40;20612;-58
2021/05/03 10:59:46;;;;;;;24.33;21.80;;;24.20;69.50;;;;;;3537070;40;20314;-56
2021/05/03 11:02:17;;;;;;;23.17;20.53;;;24.20;69.50;;;;;;3537620;40;20601;-57
2021/05/03 11:05:29;;;;;;;23.43;21.00;;;24.20;69.70;;;;;;3543279;40;20766;-56
2021/05/03 11:08:30;;;;;;;22.73;20.63;;;24.20;69.80;;;;;;3542751;40;20802;-56
2021/05/03 11:11:08;;;;;;;25.00;22.30;;;24.20;70.00;;;;;;3549768;40;20481;-53
2021/05/03 11:13:57;;;;;;;23.00;20.57;;;24.20;70.00;;;;;;3548510;40;20576;-56
2021/05/03 11:16:53;;;;;;;24.97;20.40;;;24.20;70.20;;;;;;3549396;40;20492;-57
2021/05/03 11:19:34;;;;;;;25.93;21.27;;;24.20;70.30;;;;;;3547370;40;20731;-55
2021/05/03 11:22:00;;;;;;;21.50;19.60;;;24.20;70.40;;;;;;3548161;40;20489;-54
2021/05/03 11:24:31;;;;;;;23.13;20.63;;;24.20;70.50;;;;;;3548016;40;20490;-55
2021/05/03 11:27:02;;;;;;;23.17;20.27;;;24.20;70.50;;;;;;3547390;40;20951;-56
2021/05/03 11:29:39;;;;;;;23.17;20.30;;;24.20;70.70;;;;;;3546820;40;20759;-54
2021/05/03 11:32:06;;;;;;;31.63;19.23;;;24.20;70.70;;;;;;3548256;40;20500;-55
2021/05/03 11:34:36;;;;;;;21.95;19.90;;;24.20;70.70;;;;;;3546670;40;20494;-56
2021/05/03 11:37:06;;;;;;;22.60;20.40;;;24.20;70.70;;;;;;3547076;40;20514;-56
2021/05/03 11:39:51;;;;;;;23.17;19.07;;;24.20;70.60;;;;;;3547947;40;21194;-56
2021/05/03 11:42:36;;;;;;;20.23;18.30;;;24.20;70.60;;;;;;3549195;40;20477;-54
2021/05/03 11:45:05;;;;;;;21.50;19.60;;;24.20;70.70;;;;;;3547216;40;21291;-56
2021/05/03 11:47:37;;;;;;;20.80;18.80;;;24.20;70.70;;;;;;3544645;40;20501;-55
2021/05/03 11:50:05;;;;;;;22.47;19.13;;;24.20;70.90;;;;;;3547163;40;20496;-56
2021/05/03 11:52:35;;;;;;;18.80;17.17;;;24.20;71.00;;;;;;3545598;40;20490;-56
2021/05/03 11:55:06;;;;;;;20.03;18.07;;;24.20;71.10;;;;;;3546495;40;20858;-55
2021/05/03 11:57:33;;;;;;;21.95;19.70;;;24.20;71.10;;;;;;3549403;40;20488;-56
2021/05/03 12:00:01;;;;;;;22.53;18.93;;;24.20;71.20;;;;;;3547224;40;20234;-57
2021/05/03 12:02:32;;;;;;;20.77;18.83;;;24.20;71.30;;;;;;3545621;40;20527;-54
2021/05/03 12:04:59;;;;;;;19.93;18.03;;;24.10;71.30;;;;;;3543496;40;20478;-57
2021/05/03 12:07:29;;;;;;;19.43;17.73;;;24.10;71.40;;;;;;3546651;40;20501;-57
2021/05/03 12:10:01;;;;;;;22.40;18.17;;;24.10;71.40;;;;;;3548248;40;20522;-58
2021/05/03 12:12:33;;;;;;;18.90;17.20;;;24.10;71.30;;;;;;3547419;40;20891;-57
2021/05/03 12:15:01;;;;;;;19.40;17.60;;;24.10;71.30;;;;;;3538545;40;20488;-57
2021/05/03 12:17:30;;;;;;;19.40;17.73;;;24.10;71.30;;;;;;3544836;40;20494;-57
2021/05/03 12:20:07;;;;;;;19.67;17.77;;;24.10;71.30;;;;;;3547929;40;20493;-57
2021/05/03 12:22:35;;;;;;;19.17;17.23;;;24.10;71.30;;;;;;3549366;40;20923;-56
2021/05/03 12:25:09;;;;;;;18.30;16.20;;;24.10;71.30;;;;;;3550258;40;20227;-57
2021/05/03 12:27:37;;;;;;;19.07;16.43;;;24.10;71.30;;;;;;3550352;40;20493;-58
2021/05/03 12:30:06;;;;;;;17.50;15.87;;;24.10;71.40;;;;;;3544836;40;20535;-57
2021/05/03 12:32:35;;;;;;;17.27;15.50;;;24.10;71.40;;;;;;3548302;40;20489;-57
2021/05/03 12:35:08;;;;;;;17.35;15.57;;;24.10;71.60;;;;;;3546639;40;20588;-57
2021/05/03 12:37:35;;;;;;;16.37;15.03;;;24.10;71.70;;;;;;3547608;40;20497;-56
2021/05/03 12:40:13;;;;;;;17.50;15.77;;;24.00;71.50;;;;;;3547875;40;20547;-56
2021/05/03 12:42:42;;;;;;;16.87;15.37;;;24.00;71.50;;;;;;3547765;40;20489;-56
2021/05/03 12:45:24;;;;;;;17.90;16.25;;;24.10;71.70;;;;;;3550692;40;20791;-57
2021/05/03 12:48:08;;;;;;;16.90;15.13;;;24.00;71.60;;;;;;3551363;40;20227;-58
2021/05/03 12:50:50;;;;;;;20.37;16.53;;;24.00;71.60;;;;;;3548402;40;20563;-56
2021/05/03 12:53:25;;;;;;;19.53;16.50;;;24.00;71.60;;;;;;3548334;40;20477;-56